createdAt,value
2019-05-26T00:01:43.602Z,14.80
2019-05-26T00:04:12.473Z,13.00
2019-05-26T00:06:41.774Z,19.00
2019-05-26T00:09:11.066Z,17.33
2019-05-26T00:11:39.943Z,13.17
2019-05-26T00:14:08.860Z,15.50
2019-05-26T00:16:37.736Z,17.07
2019-05-26T00:19:07.259Z,16.37
2019-05-26T00:21:36.104Z,15.88
2019-05-26T00:24:04.995Z,18.80
2019-05-26T00:26:33.805Z,17.85
2019-05-26T00:29:02.915Z,13.30
2019-05-26T00:31:32.098Z,18.15
2019-05-26T00:34:01.214Z,18.30
2019-05-26T00:36:30.531Z,13.37
2019-05-26T00:38:59.385Z,16.90
2019-05-26T00:41:28.339Z,16.52
2019-05-26T00:43:57.787Z,16.65
2019-05-26T00:46:26.711Z,17.87
2019-05-26T00:48:55.646Z,19.30
2019-05-26T00:51:24.873Z,17.62
2019-05-26T00:53:54.172Z,18.87
2019-05-26T00:56:23.020Z,19.95
2019-05-26T00:58:52.843Z,17.00
2019-05-26T01:01:21.653Z,17.25
2019-05-26T01:03:50.787Z,15.93
2019-05-26T01:06:19.756Z,16.42
2019-05-26T01:08:48.636Z,14.25
2019-05-26T01:11:17.566Z,18.35
2019-05-26T01:13:46.424Z,16.52
2019-05-26T01:16:15.315Z,15.13
2019-05-26T01:18:44.624Z,13.68
2019-05-26T01:21:13.761Z,15.00
2019-05-26T01:23:43.217Z,15.43
2019-05-26T01:26:12.088Z,12.98
2019-05-26T01:28:40.999Z,13.55
2019-05-26T01:31:10.167Z,12.20
2019-05-26T01:33:39.298Z,10.98
2019-05-26T01:36:08.702Z,9.87
2019-05-26T01:38:38.174Z,8.90
2019-05-26T01:41:07.413Z,9.78
2019-05-26T01:43:36.500Z,14.03
2019-05-26T01:46:05.800Z,8.70
2019-05-26T01:48:34.887Z,11.90
2019-05-26T01:51:03.836Z,10.65
2019-05-26T01:53:32.742Z,11.65
2019-05-26T01:56:01.887Z,11.30
2019-05-26T01:58:30.968Z,13.60
2019-05-26T02:01:00.175Z,10.10
2019-05-26T02:03:29.029Z,12.00
2019-05-26T02:05:58.293Z,14.10
2019-05-26T02:08:38.877Z,14.18
2019-05-26T02:10:58.221Z,12.78
2019-05-26T02:13:27.377Z,11.93
2019-05-26T02:15:56.586Z,10.40
2019-05-26T02:18:25.526Z,9.78
2019-05-26T02:20:54.350Z,10.95
2019-05-26T02:23:23.341Z,11.73
2019-05-26T02:25:52.298Z,12.10
2019-05-26T02:28:21.238Z,10.00
2019-05-26T02:30:50.174Z,11.88
2019-05-26T02:33:19.134Z,11.88
2019-05-26T02:35:48.438Z,11.30
2019-05-26T02:38:17.577Z,10.55
2019-05-26T02:40:46.527Z,12.18
2019-05-26T02:43:15.459Z,12.93
2019-05-26T02:45:44.710Z,11.78
2019-05-26T02:48:14.717Z,12.90
2019-05-26T02:50:43.976Z,11.63
2019-05-26T02:53:13.101Z,10.60
2019-05-26T02:55:42.311Z,13.43
2019-05-26T02:58:11.223Z,12.03
2019-05-26T03:00:44.352Z,11.48
2019-05-26T03:03:14.559Z,13.22
2019-05-26T03:05:45.373Z,11.03
2019-05-26T03:08:14.965Z,11.75
2019-05-26T03:10:44.218Z,11.10
2019-05-26T03:13:17.323Z,9.28
2019-05-26T03:15:47.376Z,9.93
2019-05-26T03:18:16.808Z,13.55
2019-05-26T03:20:45.878Z,12.70
2019-05-26T03:23:16.649Z,10.85
2019-05-26T03:25:45.788Z,16.23
2019-05-26T03:28:14.771Z,9.93
2019-05-26T03:30:44.007Z,11.80
2019-05-26T03:33:12.908Z,11.73
2019-05-26T03:35:42.097Z,11.93
2019-05-26T03:38:11.374Z,15.60
2019-05-26T03:40:40.337Z,13.10
2019-05-26T03:43:09.940Z,17.75
2019-05-26T03:46:16.297Z,13.85
2019-05-26T03:48:45.254Z,15.08
2019-05-26T03:51:14.960Z,19.42
2019-05-26T03:53:44.359Z,19.75
2019-05-26T03:56:13.364Z,15.23
2019-05-26T03:58:42.217Z,18.20
2019-05-26T04:01:11.427Z,18.55
2019-05-26T04:03:40.313Z,20.37
2019-05-26T04:06:09.251Z,18.65
2019-05-26T04:08:38.381Z,19.52
2019-05-26T04:11:07.261Z,20.77
2019-05-26T04:13:36.135Z,18.40
2019-05-26T04:16:05.227Z,16.82
2019-05-26T04:18:34.148Z,21.42
2019-05-26T04:21:03.108Z,29.30
2019-05-26T04:23:32.329Z,22.33
2019-05-26T04:26:01.567Z,21.90
2019-05-26T04:28:30.483Z,21.25
2019-05-26T04:30:59.274Z,21.65
2019-05-26T04:33:28.134Z,20.23
2019-05-26T04:35:57.341Z,18.75
2019-05-26T04:38:26.181Z,21.80
2019-05-26T04:40:55.169Z,22.67
2019-05-26T04:43:24.077Z,20.85
2019-05-26T04:45:53.020Z,22.52
2019-05-26T04:48:22.755Z,25.43
2019-05-26T04:50:51.672Z,24.92
2019-05-26T04:53:20.772Z,21.25
2019-05-26T04:55:49.840Z,23.07
2019-05-26T04:58:18.697Z,24.60
2019-05-26T05:00:47.699Z,26.95
2019-05-26T05:03:16.471Z,26.17
2019-05-26T05:05:45.385Z,24.02
2019-05-26T05:08:14.344Z,28.20
2019-05-26T05:10:43.539Z,28.00
2019-05-26T05:13:12.699Z,23.45
2019-05-26T05:15:41.658Z,27.52
2019-05-26T05:18:10.862Z,31.87
2019-05-26T05:20:40.581Z,28.87
2019-05-26T05:23:09.855Z,28.83
2019-05-26T05:25:39.177Z,28.73
2019-05-26T05:28:08.017Z,29.90
2019-05-26T05:30:37.229Z,28.23
2019-05-26T05:33:06.164Z,27.20
2019-05-26T05:35:35.033Z,28.85
2019-05-26T05:38:03.961Z,27.27
2019-05-26T05:40:33.085Z,25.45
2019-05-26T05:43:02.847Z,26.57
2019-05-26T05:45:31.922Z,28.32
2019-05-26T05:48:00.720Z,26.30
2019-05-26T05:50:29.600Z,25.60
2019-05-26T05:52:58.566Z,23.18
2019-05-26T05:55:27.785Z,30.90
2019-05-26T05:57:56.546Z,25.10
2019-05-26T06:00:25.579Z,26.80
2019-05-26T06:02:54.763Z,26.77
2019-05-26T06:05:23.601Z,26.12
2019-05-26T06:07:52.742Z,26.93
2019-05-26T06:10:22.467Z,25.65
2019-05-26T06:12:51.426Z,25.60
2019-05-26T06:15:20.300Z,23.27
2019-05-26T06:17:49.238Z,26.77
2019-05-26T06:20:18.733Z,27.32
2019-05-26T06:22:47.613Z,28.60
2019-05-26T06:25:17.194Z,24.23
2019-05-26T06:27:46.189Z,26.80
2019-05-26T06:30:15.876Z,26.07
2019-05-26T06:32:44.716Z,24.90
2019-05-26T06:35:14.119Z,23.05
2019-05-26T06:37:43.065Z,27.60
2019-05-26T06:40:12.416Z,27.50
2019-05-26T06:42:42.122Z,26.10
2019-05-26T06:45:11.377Z,26.57
2019-05-26T06:47:40.387Z,26.05
2019-05-26T06:50:10.448Z,25.90
2019-05-26T06:52:39.655Z,28.00
2019-05-26T06:55:08.841Z,24.53
2019-05-26T06:57:37.710Z,24.82
2019-05-26T07:00:07.474Z,25.88
2019-05-26T07:02:36.630Z,24.25
2019-05-26T07:05:05.999Z,25.40
2019-05-26T07:07:35.264Z,27.07
2019-05-26T07:10:04.681Z,27.15
2019-05-26T07:12:33.564Z,25.37
2019-05-26T07:15:02.846Z,25.70
2019-05-26T07:17:31.714Z,29.53
2019-05-26T07:20:00.915Z,26.05
2019-05-26T07:22:30.448Z,26.23
2019-05-26T07:24:59.417Z,28.05
2019-05-26T07:27:28.330Z,26.67
2019-05-26T07:29:57.226Z,25.85
2019-05-26T07:32:26.389Z,26.60
2019-05-26T07:34:55.600Z,33.60
2019-05-26T07:37:24.460Z,27.58
2019-05-26T07:39:53.648Z,33.87
2019-05-26T07:42:22.866Z,32.25
2019-05-26T07:44:51.977Z,30.35
2019-05-26T07:47:21.219Z,24.43
2019-05-26T07:49:50.323Z,24.52
2019-05-26T07:52:19.191Z,25.93
2019-05-26T07:54:48.070Z,25.10
2019-05-26T07:57:16.946Z,23.90
2019-05-26T07:59:46.207Z,23.50
2019-05-26T08:02:15.242Z,23.45
2019-05-26T08:04:44.032Z,23.20
2019-05-26T08:07:13.108Z,22.45
2019-05-26T08:09:42.042Z,17.27
2019-05-26T08:12:24.924Z,18.00
2019-05-26T08:14:41.826Z,19.10
2019-05-26T08:17:11.086Z,15.95
2019-05-26T08:19:40.345Z,25.05
2019-05-26T08:22:09.274Z,22.13
2019-05-26T08:24:38.562Z,19.73
2019-05-26T08:27:07.487Z,18.40
2019-05-26T08:29:36.443Z,16.37
2019-05-26T08:32:05.883Z,13.90
2019-05-26T08:34:34.818Z,12.73
2019-05-26T08:37:04.084Z,9.53
2019-05-26T08:39:33.437Z,10.53
2019-05-26T08:42:02.341Z,10.65
2019-05-26T08:44:31.592Z,18.90
2019-05-26T08:47:00.491Z,18.92
2019-05-26T08:49:29.413Z,25.80
2019-05-26T08:51:58.541Z,12.10
2019-05-26T08:54:27.401Z,11.95
2019-05-26T08:56:56.563Z,10.23
2019-05-26T08:59:25.408Z,10.63
2019-05-26T09:01:54.355Z,11.55
2019-05-26T09:04:23.546Z,14.93
2019-05-26T09:06:52.720Z,11.25
2019-05-26T09:09:21.581Z,11.53
2019-05-26T09:11:50.485Z,9.68
2019-05-26T09:14:19.341Z,8.80
2019-05-26T09:16:48.313Z,7.85
2019-05-26T09:19:17.453Z,9.45
2019-05-26T09:21:46.710Z,10.53
2019-05-26T09:24:15.609Z,8.78
2019-05-26T09:26:45.087Z,8.50
2019-05-26T09:29:13.943Z,7.13
2019-05-26T09:31:42.964Z,8.28
2019-05-26T09:34:12.172Z,10.60
2019-05-26T09:36:43.951Z,7.70
2019-05-26T09:39:12.898Z,8.23
2019-05-26T09:41:41.941Z,9.08
2019-05-26T09:44:11.108Z,11.93
2019-05-26T09:46:40.059Z,9.35
2019-05-26T09:49:09.119Z,11.60
2019-05-26T09:51:38.405Z,8.23
2019-05-26T09:54:07.323Z,6.92
2019-05-26T09:56:36.185Z,8.58
2019-05-26T09:59:05.117Z,6.30
2019-05-26T10:01:34.105Z,8.58
2019-05-26T10:04:02.969Z,8.23
2019-05-26T10:06:31.856Z,5.00
2019-05-26T10:09:00.799Z,4.53
2019-05-26T10:11:30.049Z,9.40
2019-05-26T10:13:58.939Z,11.18
2019-05-26T10:16:27.953Z,16.17
2019-05-26T10:18:57.230Z,10.53
2019-05-26T10:21:26.412Z,8.15
2019-05-26T10:23:55.317Z,7.10
2019-05-26T10:26:24.257Z,7.20
2019-05-26T10:28:53.707Z,6.35
2019-05-26T10:31:22.585Z,8.15
2019-05-26T10:33:51.838Z,4.80
2019-05-26T10:36:20.933Z,5.13
2019-05-26T10:38:49.715Z,8.88
2019-05-26T10:41:18.572Z,6.50
2019-05-26T10:43:47.993Z,6.55
2019-05-26T10:46:17.547Z,5.83
2019-05-26T10:48:46.417Z,4.72
2019-05-26T10:51:15.260Z,6.45
2019-05-26T10:53:44.570Z,5.53
2019-05-26T10:56:13.751Z,4.90
2019-05-26T10:58:42.621Z,5.40
2019-05-26T11:01:11.556Z,7.12
2019-05-26T11:03:40.455Z,4.95
2019-05-26T11:06:09.635Z,5.83
2019-05-26T11:08:38.551Z,5.35
2019-05-26T11:11:07.481Z,7.78
2019-05-26T11:13:36.606Z,7.55
2019-05-26T11:16:05.663Z,5.22
2019-05-26T11:18:34.898Z,5.20
2019-05-26T11:21:04.002Z,5.85
2019-05-26T11:23:32.979Z,5.90
2019-05-26T11:26:01.830Z,5.08
2019-05-26T11:28:30.814Z,6.60
2019-05-26T11:30:59.732Z,7.42
2019-05-26T11:33:29.103Z,6.00
2019-05-26T11:35:58.185Z,5.53
2019-05-26T11:38:27.345Z,5.53
2019-05-26T11:40:57.117Z,4.00
2019-05-26T11:43:26.265Z,4.45
2019-05-26T11:45:55.224Z,4.20
2019-05-26T11:48:39.709Z,2.70
2019-05-26T11:51:09.011Z,7.03
2019-05-26T11:53:37.799Z,3.67
2019-05-26T11:56:06.622Z,5.65
2019-05-26T11:58:35.515Z,5.62
2019-05-26T12:01:04.427Z,5.90
2019-05-26T12:03:33.288Z,4.78
2019-05-26T12:06:02.224Z,3.67
2019-05-26T12:08:31.450Z,3.98
2019-05-26T12:11:00.315Z,2.50
2019-05-26T12:13:29.514Z,2.60
2019-05-26T12:15:58.450Z,4.50
2019-05-26T12:18:27.305Z,4.10
2019-05-26T12:20:56.211Z,4.70
2019-05-26T12:23:25.159Z,2.40
2019-05-26T12:25:54.270Z,7.50
2019-05-26T12:28:23.491Z,3.05
2019-05-26T12:30:52.437Z,4.60
2019-05-26T12:33:21.307Z,3.15
2019-05-26T12:35:50.457Z,4.00
2019-05-26T12:38:19.327Z,3.77
2019-05-26T12:40:48.227Z,6.50
2019-05-26T12:43:17.262Z,10.60
2019-05-26T12:45:46.476Z,9.05
2019-05-26T12:48:15.415Z,10.70
2019-05-26T12:50:44.540Z,4.53
2019-05-26T12:53:13.478Z,27.17
2019-05-26T12:55:42.479Z,25.85
2019-05-26T12:58:11.597Z,19.57
2019-05-26T13:00:48.711Z,22.32
2019-05-26T13:03:11.451Z,18.25
2019-05-26T13:05:40.235Z,16.70
2019-05-26T13:08:09.539Z,12.37
2019-05-26T13:10:38.407Z,9.73
2019-05-26T13:13:07.341Z,6.28
2019-05-26T13:15:36.203Z,5.53
2019-05-26T13:18:05.145Z,6.50
2019-05-26T13:20:33.987Z,7.03
2019-05-26T13:23:03.200Z,4.55
2019-05-26T13:25:32.397Z,4.90
2019-05-26T13:28:01.328Z,4.55
2019-05-26T13:30:30.696Z,6.90
2019-05-26T13:33:00.248Z,5.30
2019-05-26T13:35:29.119Z,4.95
2019-05-26T13:37:58.028Z,5.25
2019-05-26T13:40:29.543Z,5.05
2019-05-26T13:42:58.571Z,6.03
2019-05-26T13:45:27.733Z,4.50
2019-05-26T13:47:57.005Z,5.03
2019-05-26T13:50:26.520Z,5.67
2019-05-26T13:52:55.808Z,8.70
2019-05-26T13:55:24.757Z,3.67
2019-05-26T13:57:53.617Z,6.50
2019-05-26T14:00:24.101Z,4.70
2019-05-26T14:02:53.332Z,5.83
2019-05-26T14:05:22.297Z,4.47
2019-05-26T14:07:51.440Z,4.95
2019-05-26T14:10:31.638Z,6.10
2019-05-26T14:13:00.869Z,5.27
2019-05-26T14:15:37.991Z,9.20
2019-05-26T14:18:01.007Z,4.42
2019-05-26T14:20:39.757Z,4.72
2019-05-26T14:23:09.715Z,4.40
2019-05-26T14:25:39.251Z,5.90
2019-05-26T14:28:08.585Z,10.15
2019-05-26T14:30:37.533Z,11.83
2019-05-26T14:33:06.549Z,19.05
2019-05-26T14:35:36.266Z,12.78
2019-05-26T14:38:05.236Z,8.35
2019-05-26T14:40:34.476Z,6.33
2019-05-26T14:43:03.738Z,5.58
2019-05-26T14:45:32.688Z,4.45
2019-05-26T14:48:01.673Z,6.83
2019-05-26T14:50:30.932Z,4.05
2019-05-26T14:52:59.780Z,5.58
2019-05-26T14:55:28.745Z,9.00
2019-05-26T14:58:12.348Z,4.65
2019-05-26T15:00:28.621Z,5.78
2019-05-26T15:02:57.771Z,18.02
2019-05-26T15:05:26.642Z,12.95
2019-05-26T15:07:55.577Z,12.15
2019-05-26T15:10:24.773Z,10.82
2019-05-26T15:12:53.708Z,8.48
2019-05-26T15:15:22.812Z,4.33
2019-05-26T15:17:51.683Z,6.50
2019-05-26T15:20:21.301Z,5.22
2019-05-26T15:22:51.107Z,5.13
2019-05-26T15:25:20.513Z,7.12
2019-05-26T15:27:49.787Z,9.55
2019-05-26T15:30:19.047Z,12.40
2019-05-26T15:32:48.868Z,10.78
2019-05-26T15:35:17.817Z,7.97
2019-05-26T15:37:47.013Z,9.93
2019-05-26T15:40:15.979Z,6.50
2019-05-26T15:42:45.543Z,6.10
2019-05-26T15:45:15.688Z,8.00
2019-05-26T15:47:44.574Z,4.95
2019-05-26T15:53:00.228Z,11.43
2019-05-26T15:55:29.447Z,6.40
2019-05-26T15:57:58.624Z,5.87
2019-05-26T16:00:27.526Z,11.28
2019-05-26T16:02:56.351Z,4.62
2019-05-26T16:05:25.268Z,5.08
2019-05-26T16:07:54.116Z,6.30
2019-05-26T16:10:22.958Z,4.67
2019-05-26T16:12:51.808Z,3.65
2019-05-26T16:15:20.773Z,4.35
2019-05-26T16:17:49.722Z,6.30
2019-05-26T16:20:18.811Z,4.25
2019-05-26T16:22:48.036Z,5.72
2019-05-26T16:25:16.972Z,4.78
2019-05-26T16:27:45.846Z,5.40
2019-05-26T16:30:15.328Z,5.83
2019-05-26T16:32:44.146Z,5.20
2019-05-26T16:35:13.098Z,5.30
2019-05-26T16:37:41.963Z,5.60
2019-05-26T16:40:11.069Z,5.10
2019-05-26T16:42:40.282Z,4.80
2019-05-26T16:45:09.364Z,5.58
2019-05-26T16:47:38.245Z,4.80
2019-05-26T16:50:07.290Z,5.97
2019-05-26T16:52:36.265Z,8.88
2019-05-26T16:55:06.019Z,6.40
2019-05-26T16:57:35.176Z,9.00
2019-05-26T17:00:04.406Z,10.27
2019-05-26T17:02:33.257Z,16.05
2019-05-26T17:05:02.451Z,8.00
2019-05-26T17:07:31.321Z,6.83
2019-05-26T17:10:00.540Z,8.78
2019-05-26T17:12:29.577Z,8.53
2019-05-26T17:14:58.429Z,6.22
2019-05-26T17:17:27.311Z,9.67
2019-05-26T17:19:56.258Z,6.97
2019-05-26T17:22:25.227Z,10.90
2019-05-26T17:24:54.579Z,9.60
2019-05-26T17:27:24.117Z,7.17
2019-05-26T17:29:53.058Z,10.32
2019-05-26T17:32:22.178Z,6.90
2019-05-26T17:34:51.029Z,7.47
2019-05-26T17:37:19.986Z,6.10
2019-05-26T17:39:48.852Z,8.35
2019-05-26T17:42:18.135Z,11.33
2019-05-26T17:44:47.440Z,11.85
2019-05-26T17:47:29.236Z,8.03
2019-05-26T17:49:47.048Z,8.63
2019-05-26T17:52:15.796Z,6.55
2019-05-26T17:54:44.575Z,8.50
2019-05-26T17:57:13.495Z,6.95
2019-05-26T17:59:42.350Z,8.98
2019-05-26T18:02:11.300Z,7.58
2019-05-26T18:04:40.158Z,9.15
2019-05-26T18:07:09.336Z,6.72
2019-05-26T18:09:44.257Z,9.05
2019-05-26T18:12:09.595Z,6.97
2019-05-26T18:14:38.482Z,5.78
2019-05-26T18:17:08.253Z,7.50
2019-05-26T18:19:37.248Z,5.67
2019-05-26T18:22:06.303Z,7.65
2019-05-26T18:24:35.197Z,7.08
2019-05-26T18:27:04.054Z,7.50
2019-05-26T18:29:33.032Z,11.93
2019-05-26T18:32:02.430Z,10.43
2019-05-26T18:34:31.868Z,10.77
2019-05-26T18:37:01.050Z,8.30
2019-05-26T18:39:29.929Z,8.85
2019-05-26T18:41:58.785Z,8.45
2019-05-26T18:44:27.638Z,9.83
2019-05-26T18:46:56.499Z,7.55
2019-05-26T18:49:25.435Z,5.53
2019-05-26T18:51:54.307Z,7.80
2019-05-26T18:54:23.182Z,12.60
2019-05-26T18:56:52.128Z,10.60
2019-05-26T18:59:21.249Z,10.27
2019-05-26T19:01:50.470Z,8.20
2019-05-26T19:04:19.416Z,7.40
2019-05-26T19:06:48.314Z,8.70
2019-05-26T19:09:17.308Z,13.53
2019-05-26T19:11:46.202Z,12.53
2019-05-26T19:14:15.457Z,9.78
2019-05-26T19:16:44.324Z,8.38
2019-05-26T19:19:13.216Z,8.43
2019-05-26T19:21:42.180Z,7.50
2019-05-26T19:24:11.286Z,10.23
2019-05-26T19:26:40.496Z,10.18
2019-05-26T19:29:09.431Z,8.20
2019-05-26T19:31:38.321Z,7.43
2019-05-26T19:34:07.292Z,11.85
2019-05-26T19:36:36.177Z,10.68
2019-05-26T19:39:08.013Z,8.28
2019-05-26T19:41:39.281Z,10.28
2019-05-26T19:44:07.858Z,10.80
2019-05-26T19:46:37.019Z,8.05
2019-05-26T19:49:05.982Z,7.37
2019-05-26T19:51:35.430Z,7.35
2019-05-26T19:54:04.492Z,7.10
2019-05-26T19:56:33.531Z,6.47
2019-05-26T19:59:02.474Z,9.13
2019-05-26T20:01:32.128Z,6.62
2019-05-26T20:04:01.270Z,6.30
2019-05-26T20:06:30.211Z,7.35
2019-05-26T20:08:59.012Z,4.95
2019-05-26T20:11:28.115Z,5.53
2019-05-26T20:13:57.219Z,5.00
2019-05-26T20:16:26.175Z,9.00
2019-05-26T20:18:55.115Z,6.20
2019-05-26T20:21:23.978Z,8.90
2019-05-26T20:23:52.819Z,7.58
2019-05-26T20:26:21.601Z,5.90
2019-05-26T20:28:50.641Z,7.83
2019-05-26T20:31:19.789Z,9.33
2019-05-26T20:33:48.848Z,5.83
2019-05-26T20:36:17.802Z,5.85
2019-05-26T20:38:47.084Z,9.83
2019-05-26T20:41:16.067Z,7.77
2019-05-26T20:43:44.913Z,7.25
2019-05-26T20:46:14.471Z,5.53
2019-05-26T20:48:43.771Z,8.58
2019-05-26T20:51:12.922Z,5.95
2019-05-26T20:53:41.871Z,8.37
2019-05-26T20:56:10.829Z,6.95
2019-05-26T20:58:39.683Z,9.63
2019-05-26T21:01:08.576Z,13.68
2019-05-26T21:03:37.810Z,12.07
2019-05-26T21:06:06.676Z,10.72
2019-05-26T21:08:35.587Z,11.25
2019-05-26T21:11:04.429Z,6.78
2019-05-26T21:13:33.291Z,10.95
2019-05-26T21:16:02.436Z,5.20
2019-05-26T21:18:31.406Z,12.57
2019-05-26T21:21:15.653Z,12.25
2019-05-26T21:23:44.618Z,15.90
2019-05-26T21:26:13.858Z,9.83
2019-05-26T21:28:43.168Z,10.60
2019-05-26T21:31:12.162Z,11.40
2019-05-26T21:33:41.378Z,10.45
2019-05-26T21:36:10.373Z,7.70
2019-05-26T21:38:39.250Z,8.85
2019-05-26T21:41:09.057Z,9.60
2019-05-26T21:43:38.485Z,11.48
2019-05-26T21:46:07.338Z,10.37
2019-05-26T21:48:36.220Z,12.50
2019-05-26T21:51:05.484Z,15.57
2019-05-26T21:53:34.407Z,13.37
2019-05-26T21:56:03.261Z,11.63
2019-05-26T21:58:32.254Z,10.00
2019-05-26T22:01:01.206Z,10.50
2019-05-26T22:03:30.274Z,10.90
2019-05-26T22:05:59.162Z,7.10
2019-05-26T22:08:28.014Z,9.60
2019-05-26T22:10:57.299Z,11.83
2019-05-26T22:13:26.059Z,13.48
2019-05-26T22:15:55.225Z,19.60
2019-05-26T22:18:24.439Z,13.00
2019-05-26T22:20:53.258Z,10.50
2019-05-26T22:23:22.139Z,10.85
2019-05-26T22:25:51.133Z,12.40
2019-05-26T22:28:20.055Z,8.58
2019-05-26T22:30:49.538Z,10.80
2019-05-26T22:33:18.309Z,12.63
2019-05-26T22:35:48.130Z,8.13
2019-05-26T22:38:17.001Z,8.30
2019-05-26T22:40:45.885Z,6.17
2019-05-26T22:43:14.723Z,7.37
2019-05-26T22:45:43.913Z,6.87
2019-05-26T22:48:12.746Z,9.05
2019-05-26T22:50:41.575Z,8.15
2019-05-26T22:53:10.699Z,8.90
2019-05-26T22:55:40.179Z,5.55
2019-05-26T22:58:09.051Z,7.50
2019-05-26T23:00:38.124Z,7.47
2019-05-26T23:03:07.138Z,8.38
2019-05-26T23:05:36.069Z,7.65
2019-05-26T23:08:05.248Z,7.10
2019-05-26T23:10:34.126Z,6.10
2019-05-26T23:13:03.828Z,8.93
2019-05-26T23:15:32.706Z,7.00
2019-05-26T23:18:01.627Z,6.00
2019-05-26T23:20:30.513Z,6.47
2019-05-26T23:22:59.703Z,7.10
2019-05-26T23:25:28.558Z,7.35
2019-05-26T23:27:57.734Z,8.23
2019-05-26T23:30:26.709Z,5.22
2019-05-26T23:32:55.535Z,5.45
2019-05-26T23:35:24.565Z,7.17
2019-05-26T23:37:53.424Z,7.10
2019-05-26T23:40:22.678Z,9.75
2019-05-26T23:42:51.744Z,5.37
2019-05-26T23:45:20.663Z,5.25
2019-05-26T23:47:49.802Z,7.53
2019-05-26T23:50:19.070Z,4.50
2019-05-26T23:52:48.559Z,7.15
2019-05-26T23:55:17.507Z,5.40
2019-05-26T23:57:46.253Z,9.30
